Terminal Aerodrome Forecast
Issued by NWS

Home | Current Version | Previous Version | Text Only | Print | Product List | Glossary On
Versions: 1 2 3 4 5 6 7 8 9 10 11 12 13 14 15 16 17 18 19 20 21 22 23 24 25
000
FTUS43 KDLH 302102 AAA
TAFHIB
TAF AMD
KHIB 302102Z 3021/0118 35006KT P6SM VCSH OVC010
     FM011000 34010KT 6SM -SN BR OVC009
      TEMPO 0113/0115 -FZDZ OVC008
     FM011500 34010KT P6SM BKN010=

USA.gov is the U.S. government's official web portal to all federal, state and local government web resources and services.